createdAt,value
2019-02-02T00:02:14.016Z,100580.17
2019-02-02T00:04:43.274Z,100580.56
2019-02-02T00:07:12.608Z,100580.26
2019-02-02T00:09:41.976Z,100583.64
2019-02-02T00:12:11.202Z,100582.44
2019-02-02T00:14:40.423Z,100581.15
2019-02-02T00:17:10.894Z,100583.73
2019-02-02T00:19:40.251Z,100584.62
2019-02-02T00:22:09.474Z,100587.61
2019-02-02T00:24:38.710Z,100584.32
2019-02-02T00:27:08.345Z,100576.97
2019-02-02T00:29:37.556Z,100580.05
2019-02-02T00:32:08.443Z,100580.05
2019-02-02T00:34:37.654Z,100580.55
2019-02-02T00:37:06.822Z,100579.74
2019-02-02T00:39:36.069Z,100579.34
2019-02-02T00:42:05.515Z,100578.55
2019-02-02T00:44:36.184Z,100577.34
2019-02-02T00:47:05.667Z,100581.72
2019-02-02T00:49:34.878Z,100572.28
2019-02-02T00:52:04.172Z,100576.16
2019-02-02T00:54:33.392Z,100576.55
2019-02-02T00:57:02.761Z,100579.13
2019-02-02T00:59:32.068Z,100573.08
2019-02-02T01:02:01.244Z,100436.68
2019-02-02T01:04:30.450Z,100574.86
2019-02-02T01:06:59.664Z,100573.57
2019-02-02T01:09:28.991Z,100567.42
2019-02-02T01:11:58.430Z,100574.28
2019-02-02T01:14:27.667Z,100574.67
2019-02-02T01:16:56.969Z,100571.30
2019-02-02T01:19:26.172Z,100560.17
2019-02-02T01:21:55.352Z,100556.79
2019-02-02T01:24:24.598Z,100554.20
2019-02-02T01:26:53.807Z,100566.31
2019-02-02T01:29:22.988Z,100564.62
2019-02-02T01:31:52.237Z,100567.30
2019-02-02T01:34:21.430Z,100563.52
2019-02-02T01:36:50.622Z,100560.63
2019-02-02T01:39:19.843Z,100554.58
2019-02-02T01:41:49.029Z,100549.41
2019-02-02T01:44:18.501Z,100552.48
2019-02-02T01:46:47.777Z,100560.23
2019-02-02T01:49:17.125Z,100561.44
2019-02-02T01:51:46.392Z,100560.63
2019-02-02T01:54:15.570Z,100558.05
2019-02-02T01:56:44.819Z,100567.98
2019-02-02T01:59:13.959Z,100573.55
2019-02-02T02:01:43.215Z,100570.38
2019-02-02T02:04:12.471Z,100568.69
2019-02-02T02:06:41.786Z,100564.91
2019-02-02T02:09:11.909Z,100570.38
2019-02-02T02:11:41.189Z,100570.88
2019-02-02T02:14:10.827Z,100574.65
2019-02-02T02:16:40.066Z,100570.28
2019-02-02T02:19:09.316Z,100575.45
2019-02-02T02:21:38.504Z,100574.55
2019-02-02T02:24:07.890Z,100582.80
2019-02-02T02:26:37.209Z,100584.48
2019-02-02T02:29:06.438Z,100580.61
2019-02-02T02:31:35.984Z,100579.32
2019-02-02T02:34:05.186Z,100578.92
2019-02-02T02:36:34.368Z,100580.31
2019-02-02T02:39:04.693Z,100583.38
2019-02-02T02:41:33.886Z,100586.36
2019-02-02T02:44:03.150Z,100606.63
2019-02-02T02:46:32.429Z,100588.94
2019-02-02T02:49:01.636Z,100591.62
2019-02-02T02:51:30.860Z,100588.64
2019-02-02T02:54:00.094Z,100586.05
2019-02-02T02:56:29.655Z,100588.23
2019-02-02T02:58:59.738Z,100583.88
2019-02-02T03:01:29.023Z,100579.20
2019-02-02T03:03:58.211Z,100580.89
2019-02-02T03:06:27.410Z,100579.70
2019-02-02T03:08:56.677Z,100589.31
2019-02-02T03:11:25.965Z,100589.81
2019-02-02T03:13:56.502Z,100587.72
2019-02-02T03:16:26.078Z,100583.14
2019-02-02T03:18:55.335Z,100579.67
2019-02-02T03:21:24.481Z,100584.52
2019-02-02T03:23:53.725Z,100571.61
2019-02-02T03:26:22.934Z,100571.61
2019-02-02T03:28:53.577Z,100576.87
2019-02-02T03:31:23.293Z,100588.98
2019-02-02T03:33:52.576Z,100592.06
2019-02-02T03:36:21.763Z,100582.92
2019-02-02T03:38:51.012Z,100588.19
2019-02-02T03:41:20.235Z,100591.17
2019-02-02T03:43:49.470Z,100595.34
2019-02-02T03:46:18.692Z,100596.64
2019-02-02T03:48:47.925Z,100595.84
2019-02-02T03:51:17.132Z,100592.86
2019-02-02T03:53:46.380Z,100595.84
2019-02-02T03:56:15.587Z,100590.98
2019-02-02T03:58:44.848Z,100590.48
2019-02-02T04:01:14.088Z,100590.00
2019-02-02T04:03:43.475Z,100588.70
2019-02-02T04:06:12.750Z,100590.89
2019-02-02T04:08:42.010Z,100589.11
2019-02-02T04:11:11.208Z,100590.70
2019-02-02T04:13:40.419Z,100582.46
2019-02-02T04:16:09.784Z,100581.97
2019-02-02T04:18:39.300Z,100583.27
2019-02-02T04:21:08.480Z,100581.48
2019-02-02T04:23:37.757Z,100583.57
2019-02-02T04:26:06.978Z,100593.50
2019-02-02T04:28:36.177Z,100582.98
2019-02-02T04:31:05.411Z,100590.23
2019-02-02T04:33:34.611Z,100584.58
2019-02-02T04:36:03.830Z,100588.45
2019-02-02T04:38:33.145Z,100583.10
2019-02-02T04:41:02.330Z,100582.61
2019-02-02T04:43:31.536Z,100585.50
2019-02-02T04:46:00.763Z,100589.86
2019-02-02T04:48:32.392Z,100587.77
2019-02-02T04:51:00.984Z,100583.31
2019-02-02T04:53:30.275Z,100588.38
2019-02-02T04:55:59.512Z,100593.15
2019-02-02T04:58:28.823Z,100597.11
2019-02-02T05:00:58.038Z,100595.23
2019-02-02T05:03:27.247Z,100601.59
2019-02-02T05:05:56.462Z,100606.56
2019-02-02T05:08:25.721Z,100599.52
2019-02-02T05:10:54.922Z,100604.99
2019-02-02T05:13:24.169Z,100613.05
2019-02-02T05:15:53.439Z,100615.03
2019-02-02T05:18:22.820Z,100517.42
2019-02-02T05:20:52.296Z,100622.59
2019-02-02T05:23:21.549Z,100628.94
2019-02-02T05:25:50.804Z,100631.62
2019-02-02T05:28:19.992Z,100624.38
2019-02-02T05:30:49.217Z,100620.69
2019-02-02T05:33:18.421Z,100613.63
2019-02-02T05:35:47.682Z,100619.78
2019-02-02T05:38:16.884Z,100621.75
2019-02-02T05:40:46.279Z,100617.58
2019-02-02T05:43:15.520Z,100614.59
2019-02-02T05:45:44.791Z,100621.24
2019-02-02T05:48:13.975Z,100622.23
2019-02-02T05:50:43.177Z,100629.27
2019-02-02T05:53:12.461Z,100628.08
2019-02-02T05:55:41.666Z,100633.83
2019-02-02T05:58:10.859Z,100629.06
2019-02-02T06:00:43.375Z,100633.43
2019-02-02T06:03:12.593Z,100633.83
2019-02-02T06:05:41.794Z,100637.40
2019-02-02T06:08:11.133Z,100632.94
2019-02-02T06:10:40.450Z,100615.11
2019-02-02T06:13:09.665Z,100633.23
2019-02-02T06:15:38.992Z,100643.66
2019-02-02T06:18:08.208Z,100633.73
2019-02-02T06:20:37.540Z,100650.92
2019-02-02T06:23:07.061Z,100649.14
2019-02-02T06:25:36.313Z,100647.44
2019-02-02T06:28:06.118Z,100649.63
2019-02-02T06:30:35.393Z,100648.34
2019-02-02T06:33:04.689Z,100648.83
2019-02-02T06:35:33.912Z,100647.44
2019-02-02T06:38:03.153Z,100655.69
2019-02-02T06:40:32.375Z,100660.45
2019-02-02T06:43:01.574Z,100664.91
2019-02-02T06:45:33.061Z,100668.39
2019-02-02T06:48:02.300Z,100669.38
2019-02-02T06:50:31.603Z,100665.20
2019-02-02T06:53:01.230Z,100666.09
2019-02-02T06:55:30.433Z,100675.13
2019-02-02T06:57:59.640Z,100676.42
2019-02-02T07:00:28.911Z,100682.98
2019-02-02T07:02:58.223Z,100679.10
2019-02-02T07:05:27.590Z,100679.59
2019-02-02T07:07:56.898Z,100682.58
2019-02-02T07:10:27.123Z,100687.84
2019-02-02T07:12:56.333Z,100682.17
2019-02-02T07:15:28.230Z,100685.75
2019-02-02T07:17:57.723Z,100688.42
2019-02-02T07:20:26.997Z,100687.14
2019-02-02T07:22:59.012Z,100692.80
2019-02-02T07:25:28.451Z,100689.52
2019-02-02T07:27:57.959Z,100691.79
2019-02-02T07:30:29.054Z,100694.86
2019-02-02T07:32:58.274Z,100688.91
2019-02-02T07:35:27.503Z,100688.01
2019-02-02T07:37:56.758Z,100689.70
2019-02-02T07:40:26.016Z,100691.48
2019-02-02T07:42:55.328Z,100696.34
2019-02-02T07:45:27.198Z,100695.36
2019-02-02T07:47:56.574Z,100692.78
2019-02-02T07:50:26.282Z,100691.79
2019-02-02T07:52:55.640Z,100698.44
2019-02-02T07:55:24.841Z,100694.06
2019-02-02T07:57:54.033Z,100684.23
2019-02-02T08:00:39.760Z,100682.14
2019-02-02T08:03:01.465Z,100684.81
2019-02-02T08:05:30.726Z,100693.45
2019-02-02T08:08:00.267Z,100703.89
2019-02-02T08:10:29.480Z,100699.91
2019-02-02T08:12:58.715Z,100699.12
2019-02-02T08:15:29.708Z,100703.39
2019-02-02T08:17:58.929Z,100707.06
2019-02-02T08:20:28.136Z,100579.23
2019-02-02T08:22:57.412Z,100700.48
2019-02-02T08:25:26.680Z,100713.09
2019-02-02T08:27:56.011Z,100711.99
2019-02-02T08:30:28.016Z,100719.75
2019-02-02T08:33:00.068Z,100723.23
2019-02-02T08:35:29.561Z,100725.13
2019-02-02T08:37:59.327Z,100722.26
2019-02-02T08:40:28.562Z,100718.50
2019-02-02T08:42:58.164Z,100714.62
2019-02-02T08:45:27.410Z,100712.93
2019-02-02T08:47:56.616Z,100714.72
2019-02-02T08:50:28.492Z,100713.61
2019-02-02T08:52:57.766Z,100718.48
2019-02-02T08:55:27.092Z,100718.66
2019-02-02T08:57:56.356Z,100717.96
2019-02-02T09:00:25.581Z,100719.75
2019-02-02T09:02:54.777Z,100721.72
2019-02-02T09:05:24.458Z,100721.72
2019-02-02T09:07:53.838Z,100714.46
2019-02-02T09:10:26.498Z,100726.58
2019-02-02T09:12:55.950Z,100722.31
2019-02-02T09:15:25.239Z,100719.02
2019-02-02T09:17:54.441Z,100724.68
2019-02-02T09:20:23.755Z,100715.73
2019-02-02T09:23:03.874Z,100719.70
2019-02-02T09:25:23.976Z,100716.41
2019-02-02T09:27:53.359Z,100714.41
2019-02-02T09:30:25.356Z,100709.33
2019-02-02T09:32:54.551Z,100709.92
2019-02-02T09:35:23.759Z,100712.69
2019-02-02T09:37:53.127Z,100712.78
2019-02-02T09:40:25.707Z,100706.32
2019-02-02T09:42:55.461Z,100712.08
2019-02-02T09:45:24.934Z,100706.69
2019-02-02T09:47:54.230Z,100704.11
2019-02-02T09:50:24.453Z,100661.95
2019-02-02T09:52:53.877Z,100710.84
2019-02-02T09:55:24.166Z,100710.35
2019-02-02T09:57:55.718Z,100711.16
2019-02-02T10:00:27.310Z,100711.06
2019-02-02T10:02:56.865Z,100711.86
2019-02-02T10:05:26.652Z,100709.40
2019-02-02T10:07:56.209Z,100708.11
2019-02-02T10:10:27.400Z,100708.02
2019-02-02T10:12:56.711Z,100709.21
2019-02-02T10:15:26.151Z,100708.23
2019-02-02T10:17:55.336Z,100563.08
2019-02-02T10:20:26.477Z,100571.91
2019-02-02T10:22:56.052Z,100704.05
2019-02-02T10:25:27.153Z,100708.23
2019-02-02T10:27:56.700Z,100702.47
2019-02-02T10:30:31.426Z,100706.26
2019-02-02T10:33:00.786Z,100700.20
2019-02-02T10:35:30.178Z,100695.33
2019-02-02T10:37:59.439Z,100695.14
2019-02-02T10:40:29.999Z,100699.27
2019-02-02T10:43:01.310Z,100693.34
2019-02-02T10:45:34.472Z,100701.02
2019-02-02T10:48:04.145Z,100695.17
2019-02-02T10:50:33.632Z,100697.16
2019-02-02T10:53:02.855Z,100698.06
2019-02-02T10:55:32.131Z,100699.34
2019-02-02T10:58:01.358Z,100695.47
2019-02-02T11:00:32.570Z,100698.06
2019-02-02T11:03:01.973Z,100692.98
2019-02-02T11:05:31.237Z,100700.52
2019-02-02T11:08:01.421Z,100695.45
2019-02-02T11:10:31.401Z,100696.34
2019-02-02T11:13:00.653Z,100690.69
2019-02-02T11:15:30.182Z,100686.31
2019-02-02T11:17:59.898Z,100685.52
2019-02-02T11:20:33.333Z,100673.09
2019-02-02T11:23:04.458Z,100675.38
2019-02-02T11:25:33.660Z,100665.53
2019-02-02T11:28:02.865Z,100669.50
2019-02-02T11:30:32.603Z,100669.02
2019-02-02T11:33:01.923Z,100674.77
2019-02-02T11:35:31.126Z,100671.78
2019-02-02T11:38:00.463Z,100673.56
2019-02-02T11:40:34.381Z,100676.24
2019-02-02T11:43:05.089Z,100680.31
2019-02-02T11:45:34.383Z,100678.22
2019-02-02T11:48:03.718Z,100671.76
2019-02-02T11:50:32.984Z,100675.14
2019-02-02T11:53:02.225Z,100679.41
2019-02-02T11:55:31.500Z,100678.03
2019-02-02T11:58:00.841Z,100677.84
2019-02-02T12:00:32.499Z,100677.34
2019-02-02T12:03:04.336Z,100672.18
2019-02-02T12:05:32.718Z,100681.72
2019-02-02T12:08:01.968Z,100680.42
2019-02-02T12:10:31.341Z,100683.80
2019-02-02T12:13:00.580Z,100680.73
2019-02-02T12:15:29.914Z,100676.45
2019-02-02T12:17:59.590Z,100672.89
2019-02-02T12:20:29.276Z,100668.02
2019-02-02T12:22:58.698Z,100664.15
2019-02-02T12:25:27.939Z,100666.64
2019-02-02T12:27:57.184Z,100662.77
2019-02-02T12:30:34.094Z,100655.02
2019-02-02T12:33:03.822Z,100648.06
2019-02-02T12:35:33.210Z,100642.00
2019-02-02T12:38:04.824Z,100644.19
2019-02-02T12:40:34.083Z,100637.82
2019-02-02T12:43:03.339Z,100629.18
2019-02-02T12:45:39.313Z,100510.96
2019-02-02T12:48:08.817Z,100631.17
2019-02-02T12:50:38.000Z,100633.17
2019-02-02T12:53:07.261Z,100642.52
2019-02-02T12:55:36.460Z,100646.89
2019-02-02T12:58:06.755Z,100645.59
2019-02-02T13:00:36.064Z,100645.29
2019-02-02T13:03:05.740Z,100650.95
2019-02-02T13:05:35.103Z,100644.49
2019-02-02T13:08:06.879Z,100645.78
2019-02-02T13:10:38.180Z,100651.84
2019-02-02T13:13:07.455Z,100656.21
2019-02-02T13:15:36.739Z,100655.32
2019-02-02T13:18:06.073Z,100650.95
2019-02-02T13:20:35.503Z,100654.22
2019-02-02T13:23:04.776Z,100653.60
2019-02-02T13:25:34.073Z,100652.31
2019-02-02T13:28:03.302Z,100653.81
2019-02-02T13:30:34.423Z,100642.89
2019-02-02T13:33:03.716Z,100638.92
2019-02-02T13:35:35.069Z,100637.63
2019-02-02T13:38:04.592Z,100638.34
2019-02-02T13:40:37.515Z,100634.38
2019-02-02T13:43:06.781Z,100636.46
2019-02-02T13:45:38.201Z,100630.41
2019-02-02T13:48:07.736Z,100638.55
2019-02-02T13:50:37.584Z,100638.16
2019-02-02T13:53:08.411Z,100636.86
2019-02-02T13:55:39.930Z,100623.55
2019-02-02T13:58:10.570Z,100630.41
2019-02-02T14:00:41.112Z,100627.02
2019-02-02T14:03:10.573Z,100625.64
2019-02-02T14:05:41.243Z,100637.26
2019-02-02T14:08:10.704Z,100637.47
2019-02-02T14:10:40.088Z,100633.91
2019-02-02T14:13:09.289Z,100632.70
2019-02-02T14:15:39.268Z,100025.98
2019-02-02T14:18:08.888Z,100638.17
2019-02-02T14:20:38.126Z,100641.95
2019-02-02T14:23:07.680Z,100645.73
2019-02-02T14:25:36.889Z,100652.28
2019-02-02T14:28:06.094Z,100646.63
2019-02-02T14:30:35.419Z,100642.36
2019-02-02T14:33:14.145Z,100645.92
2019-02-02T14:35:38.504Z,100643.74
2019-02-02T14:38:07.772Z,100645.43
2019-02-02T14:40:37.552Z,100642.95
2019-02-02T14:43:06.753Z,100648.11
2019-02-02T14:45:36.070Z,100642.45
2019-02-02T14:48:05.353Z,100645.83
2019-02-02T14:50:34.676Z,100641.77
2019-02-02T14:53:05.236Z,100648.62
2019-02-02T14:55:34.706Z,100651.91
2019-02-02T14:58:03.888Z,100654.39
2019-02-02T15:00:33.142Z,100655.98
2019-02-02T15:03:03.444Z,100652.81
2019-02-02T15:05:42.398Z,100653.70
2019-02-02T15:08:05.983Z,100654.30
2019-02-02T15:10:35.210Z,100652.52
2019-02-02T15:13:04.465Z,100651.22
2019-02-02T15:15:33.786Z,100646.55
2019-02-02T15:18:03.001Z,100652.21
2019-02-02T15:20:34.342Z,100642.38
2019-02-02T15:23:03.899Z,100641.58
2019-02-02T15:25:34.664Z,100641.67
2019-02-02T15:28:03.951Z,100644.35
2019-02-02T15:30:33.674Z,100638.30
2019-02-02T15:33:03.514Z,100631.34
2019-02-02T15:35:34.400Z,100634.33
2019-02-02T15:38:03.687Z,100633.43
2019-02-02T15:40:33.176Z,100629.95
2019-02-02T15:43:02.455Z,100635.92
2019-02-02T15:45:32.024Z,100628.48
2019-02-02T15:48:01.428Z,100625.80
2019-02-02T15:50:30.715Z,100622.82
2019-02-02T15:53:00.575Z,100625.89
2019-02-02T15:55:30.325Z,100627.28
2019-02-02T15:58:00.442Z,100628.48
2019-02-02T16:00:34.813Z,100632.26
2019-02-02T16:03:04.931Z,100625.30
2019-02-02T16:05:34.922Z,100626.11
2019-02-02T16:08:09.980Z,100629.88
2019-02-02T16:10:39.197Z,100624.23
2019-02-02T16:13:08.524Z,100621.24
2019-02-02T16:15:37.759Z,100617.77
2019-02-02T16:18:07.193Z,100621.15
2019-02-02T16:20:42.278Z,100625.81
2019-02-02T16:23:11.978Z,100612.41
2019-02-02T16:25:41.780Z,100620.16
2019-02-02T16:28:11.008Z,100617.58
2019-02-02T16:30:40.306Z,100617.98
2019-02-02T16:33:09.676Z,100623.84
2019-02-02T16:35:38.908Z,100614.02
2019-02-02T16:38:09.172Z,100613.92
2019-02-02T16:40:38.396Z,100612.93
2019-02-02T16:43:09.925Z,100613.33
2019-02-02T16:45:39.202Z,100604.29
2019-02-02T16:48:08.888Z,100601.52
2019-02-02T16:50:38.207Z,100599.73
2019-02-02T16:53:07.396Z,100611.75
2019-02-02T16:55:36.654Z,100613.44
2019-02-02T16:58:05.986Z,100603.41
2019-02-02T17:00:35.263Z,100593.89
2019-02-02T17:03:06.053Z,100599.05
2019-02-02T17:05:35.399Z,100594.19
2019-02-02T17:08:05.128Z,100586.36
2019-02-02T17:10:38.476Z,100594.49
2019-02-02T17:13:07.999Z,100589.03
2019-02-02T17:15:40.094Z,100590.32
2019-02-02T17:18:09.417Z,100582.27
2019-02-02T17:20:45.165Z,100585.66
2019-02-02T17:23:14.487Z,100580.00
2019-02-02T17:25:43.744Z,100584.17
2019-02-02T17:28:13.256Z,100576.92
2019-02-02T17:30:42.836Z,100572.55
2019-02-02T17:33:16.252Z,100573.45
2019-02-02T17:35:46.013Z,100570.67
2019-02-02T17:38:15.215Z,100572.46
2019-02-02T17:40:44.482Z,100581.89
2019-02-02T17:43:35.613Z,100579.41
2019-02-02T17:46:10.990Z,100571.17
2019-02-02T17:48:42.031Z,100566.01
2019-02-02T17:51:12.870Z,100565.61
2019-02-02T17:53:44.017Z,100568.19
2019-02-02T17:56:15.912Z,100566.41
2019-02-02T17:58:46.598Z,100563.42
2019-02-02T18:01:19.629Z,100560.45
2019-02-02T18:03:50.669Z,100564.32
2019-02-02T18:06:30.039Z,100560.05
2019-02-02T18:08:59.710Z,100550.13
2019-02-02T18:11:29.166Z,100542.57
2019-02-02T18:14:07.558Z,100554.19
2019-02-02T18:16:39.351Z,100553.78
2019-02-02T18:19:11.518Z,100546.04
2019-02-02T18:21:48.055Z,100542.27
2019-02-02T18:24:19.972Z,100543.16
2019-02-02T18:27:05.965Z,100542.57
2019-02-02T18:29:35.569Z,100533.53
2019-02-02T18:32:13.829Z,100537.50
2019-02-02T18:34:58.320Z,100532.34
2019-02-02T18:37:50.356Z,100525.48
2019-02-02T18:40:45.179Z,100527.77
2019-02-02T18:43:20.291Z,100525.58
2019-02-02T18:45:54.652Z,100521.61
2019-02-02T18:48:33.432Z,100515.56
2019-02-02T18:51:32.464Z,100518.14
2019-02-02T18:54:02.352Z,100503.85
2019-02-02T18:56:36.724Z,100513.88
2019-02-02T19:02:18.359Z,100506.92
2019-02-02T19:05:48.811Z,100495.31
2019-02-02T19:08:54.751Z,100491.84
2019-02-02T19:11:27.134Z,100487.87
2019-02-02T19:14:01.091Z,100487.48
2019-02-02T19:17:00.808Z,100481.42
2019-02-02T19:19:30.334Z,100484.41
2019-02-02T19:22:04.148Z,100478.84
2019-02-02T19:24:42.350Z,100476.27
2019-02-02T19:27:18.301Z,100471.98
2019-02-02T19:29:51.305Z,100476.27
2019-02-02T19:32:20.974Z,100482.41
2019-02-02T19:35:00.360Z,100478.53
2019-02-02T19:37:40.176Z,100481.61
2019-02-02T19:40:12.412Z,100485.88
2019-02-02T19:42:46.095Z,100481.11
2019-02-02T19:45:21.298Z,100485.48
2019-02-02T19:47:51.487Z,100476.53
2019-02-02T19:50:25.559Z,100477.42
2019-02-02T19:53:00.108Z,100465.41
2019-02-02T19:55:40.430Z,100461.94
2019-02-02T19:58:11.768Z,100461.94
2019-02-02T20:00:45.741Z,100451.13
2019-02-02T20:03:26.390Z,100453.30
2019-02-02T20:06:11.535Z,100455.98
2019-02-02T20:08:44.504Z,100453.09
2019-02-02T20:11:35.837Z,100457.76
2019-02-02T20:14:30.832Z,100449.22
2019-02-02T20:17:00.133Z,100448.81
2019-02-02T20:19:33.736Z,100444.14
2019-02-02T20:22:04.083Z,100439.88
2019-02-02T20:24:33.301Z,100443.44
2019-02-02T20:27:05.035Z,100434.80
2019-02-02T20:29:39.526Z,100442.14
2019-02-02T20:32:16.300Z,100442.14
2019-02-02T20:34:52.014Z,100438.27
2019-02-02T20:37:56.605Z,100441.75
2019-02-02T20:40:58.502Z,100445.22
2019-02-02T20:43:54.987Z,100448.11
2019-02-02T20:46:35.217Z,100451.89
2019-02-02T20:49:08.793Z,100458.74
2019-02-02T20:54:30.282Z,100460.56
2019-02-02T21:00:49.824Z,100444.89
2019-02-02T21:03:38.852Z,100440.13
2019-02-02T21:13:14.952Z,100427.34
2019-02-02T21:15:47.664Z,100423.78
2019-02-02T21:18:25.405Z,100417.02
2019-02-02T21:21:04.562Z,100409.19
2019-02-02T21:23:34.783Z,100402.73
2019-02-02T21:26:06.421Z,100394.91
2019-02-02T21:28:50.043Z,100390.05
2019-02-02T21:31:20.026Z,100392.32
2019-02-02T21:33:52.060Z,100412.17
2019-02-02T21:36:25.109Z,100404.43
2019-02-02T21:38:56.420Z,100395.39
2019-02-02T21:41:26.711Z,100400.95
2019-02-02T21:44:02.364Z,100403.53
2019-02-02T21:46:31.533Z,100393.61
2019-02-02T21:49:04.038Z,100382.40
2019-02-02T21:51:39.195Z,100377.55
2019-02-02T21:54:12.763Z,100379.23
2019-02-02T21:56:46.779Z,100363.75
2019-02-02T21:59:29.457Z,100366.03
2019-02-02T22:02:08.748Z,100371.19
2019-02-02T22:04:52.231Z,100363.94
2019-02-02T22:08:14.640Z,100363.45
2019-02-02T22:11:10.625Z,100347.47
2019-02-02T22:14:28.648Z,100331.02
2019-02-02T22:17:42.052Z,100325.85
2019-02-02T22:20:12.716Z,100327.85
2019-02-02T22:22:48.636Z,100315.27
2019-02-02T22:28:36.294Z,100315.27
2019-02-02T22:31:05.531Z,100313.08
2019-02-02T22:33:50.488Z,100306.05
2019-02-02T22:36:32.056Z,100299.91
2019-02-02T22:39:46.318Z,100295.64
2019-02-02T22:43:18.896Z,100294.27
2019-02-02T22:46:15.211Z,100295.46
2019-02-02T22:59:27.029Z,100282.20
2019-02-02T23:02:20.995Z,100279.05
2019-02-02T23:05:28.215Z,100268.33
2019-02-02T23:08:25.329Z,100267.44
2019-02-02T23:11:47.195Z,100271.70
2019-02-02T23:14:48.964Z,100259.70
2019-02-02T23:17:19.106Z,100253.83
2019-02-02T23:19:48.351Z,100245.60
2019-02-02T23:22:18.790Z,100245.20
2019-02-02T23:24:48.050Z,100245.20
2019-02-02T23:27:17.268Z,100237.55
2019-02-02T23:29:46.516Z,100229.81
2019-02-02T23:32:15.715Z,100231.19
2019-02-02T23:34:44.912Z,100226.03
2019-02-02T23:37:14.227Z,100229.98
2019-02-02T23:39:43.667Z,100230.79
2019-02-02T23:42:12.850Z,100226.03
2019-02-02T23:44:42.198Z,100226.83
2019-02-02T23:47:11.382Z,100213.05
2019-02-02T23:49:40.851Z,100212.88
2019-02-02T23:52:10.074Z,100214.47
2019-02-02T23:54:39.618Z,100206.34
2019-02-02T23:57:08.808Z,100205.12
2019-02-02T23:59:38.141Z,100203.84
